sensor_id;sensor_type;location;lat;lon;timestamp;P1;durP1;ratioP1;P2;durP2;ratioP2
21432;SDS011;18592;49.708;10.900;2022-08-19T00:00:22;11.45;;;10.45;;
21432;SDS011;18592;49.708;10.900;2022-08-19T00:02:23;10.63;;;9.73;;
21432;SDS011;18592;49.708;10.900;2022-08-19T00:04:30;10.25;;;9.35;;
21432;SDS011;18592;49.708;10.900;2022-08-19T00:06:36;10.57;;;9.57;;
21432;SDS011;18592;49.708;10.900;2022-08-19T00:08:40;11.07;;;10.18;;
21432;SDS011;18592;49.708;10.900;2022-08-19T00:10:43;10.52;;;9.63;;
21432;SDS011;18592;49.708;10.900;2022-08-19T00:12:45;10.77;;;9.82;;
21432;SDS011;18592;49.708;10.900;2022-08-19T00:14:47;10.80;;;9.85;;
21432;SDS011;18592;49.708;10.900;2022-08-19T00:16:49;11.52;;;10.43;;
21432;SDS011;18592;49.708;10.900;2022-08-19T00:18:53;10.38;;;9.48;;
21432;SDS011;18592;49.708;10.900;2022-08-19T00:20:56;11.15;;;10.02;;
21432;SDS011;18592;49.708;10.900;2022-08-19T00:22:58;11.40;;;10.30;;
21432;SDS011;18592;49.708;10.900;2022-08-19T00:25:00;9.63;;;8.73;;
21432;SDS011;18592;49.708;10.900;2022-08-19T00:27:02;11.43;;;10.43;;
21432;SDS011;18592;49.708;10.900;2022-08-19T00:29:24;10.85;;;9.90;;
21432;SDS011;18592;49.708;10.900;2022-08-19T00:31:26;10.55;;;9.65;;
21432;SDS011;18592;49.708;10.900;2022-08-19T00:33:29;11.73;;;10.70;;
21432;SDS011;18592;49.708;10.900;2022-08-19T00:35:33;12.15;;;10.95;;
21432;SDS011;18592;49.708;10.900;2022-08-19T00:37:35;12.20;;;11.02;;
21432;SDS011;18592;49.708;10.900;2022-08-19T00:39:37;11.40;;;10.43;;
21432;SDS011;18592;49.708;10.900;2022-08-19T00:41:39;12.90;;;11.70;;
21432;SDS011;18592;49.708;10.900;2022-08-19T00:43:42;13.40;;;12.05;;
21432;SDS011;18592;49.708;10.900;2022-08-19T00:45:44;14.73;;;13.23;;
21432;SDS011;18592;49.708;10.900;2022-08-19T00:47:45;13.23;;;12.00;;
21432;SDS011;18592;49.708;10.900;2022-08-19T00:49:48;12.98;;;11.73;;
21432;SDS011;18592;49.708;10.900;2022-08-19T00:51:55;13.93;;;12.48;;
21432;SDS011;18592;49.708;10.900;2022-08-19T00:54:02;14.75;;;13.35;;
21432;SDS011;18592;49.708;10.900;2022-08-19T00:56:04;14.02;;;12.75;;
21432;SDS011;18592;49.708;10.900;2022-08-19T00:58:10;13.40;;;12.18;;
21432;SDS011;18592;49.708;10.900;2022-08-19T01:00:16;14.93;;;13.43;;
21432;SDS011;18592;49.708;10.900;2022-08-19T01:02:19;13.15;;;11.85;;
21432;SDS011;18592;49.708;10.900;2022-08-19T01:04:21;13.40;;;12.10;;
21432;SDS011;18592;49.708;10.900;2022-08-19T01:06:23;13.05;;;11.85;;
21432;SDS011;18592;49.708;10.900;2022-08-19T01:08:24;13.30;;;12.10;;
21432;SDS011;18592;49.708;10.900;2022-08-19T01:10:32;13.15;;;11.85;;
21432;SDS011;18592;49.708;10.900;2022-08-19T01:12:38;14.27;;;12.98;;
21432;SDS011;18592;49.708;10.900;2022-08-19T01:14:40;12.80;;;11.63;;
21432;SDS011;18592;49.708;10.900;2022-08-19T01:16:42;12.95;;;11.75;;
21432;SDS011;18592;49.708;10.900;2022-08-19T01:18:46;12.90;;;11.75;;
21432;SDS011;18592;49.708;10.900;2022-08-19T01:20:48;13.65;;;12.35;;
21432;SDS011;18592;49.708;10.900;2022-08-19T01:22:54;13.68;;;12.48;;
21432;SDS011;18592;49.708;10.900;2022-08-19T01:24:58;14.15;;;12.65;;
21432;SDS011;18592;49.708;10.900;2022-08-19T01:27:00;13.82;;;12.40;;
21432;SDS011;18592;49.708;10.900;2022-08-19T01:29:11;13.93;;;12.52;;
21432;SDS011;18592;49.708;10.900;2022-08-19T01:31:16;14.10;;;12.77;;
21432;SDS011;18592;49.708;10.900;2022-08-19T01:33:27;13.57;;;12.38;;
21432;SDS011;18592;49.708;10.900;2022-08-19T01:35:32;14.18;;;12.88;;
21432;SDS011;18592;49.708;10.900;2022-08-19T01:37:47;14.35;;;12.85;;
21432;SDS011;18592;49.708;10.900;2022-08-19T01:39:52;14.82;;;13.43;;
21432;SDS011;18592;49.708;10.900;2022-08-19T01:41:54;14.98;;;13.57;;
21432;SDS011;18592;49.708;10.900;2022-08-19T01:43:56;14.77;;;13.45;;
21432;SDS011;18592;49.708;10.900;2022-08-19T01:46:18;14.45;;;13.05;;
21432;SDS011;18592;49.708;10.900;2022-08-19T01:48:25;16.58;;;14.98;;
21432;SDS011;18592;49.708;10.900;2022-08-19T01:50:26;16.50;;;15.00;;
21432;SDS011;18592;49.708;10.900;2022-08-19T01:52:28;15.68;;;14.18;;
21432;SDS011;18592;49.708;10.900;2022-08-19T01:54:30;16.23;;;14.63;;
21432;SDS011;18592;49.708;10.900;2022-08-19T01:56:33;16.23;;;14.63;;
21432;SDS011;18592;49.708;10.900;2022-08-19T01:58:36;17.98;;;16.10;;
21432;SDS011;18592;49.708;10.900;2022-08-19T02:00:42;16.30;;;14.65;;
21432;SDS011;18592;49.708;10.900;2022-08-19T02:02:44;17.50;;;15.80;;
21432;SDS011;18592;49.708;10.900;2022-08-19T02:04:46;16.55;;;14.98;;
21432;SDS011;18592;49.708;10.900;2022-08-19T02:06:49;17.05;;;15.45;;
21432;SDS011;18592;49.708;10.900;2022-08-19T02:08:50;17.38;;;15.68;;
21432;SDS011;18592;49.708;10.900;2022-08-19T02:10:57;16.60;;;15.00;;
21432;SDS011;18592;49.708;10.900;2022-08-19T02:12:59;16.48;;;14.88;;
21432;SDS011;18592;49.708;10.900;2022-08-19T02:15:00;17.90;;;16.20;;
21432;SDS011;18592;49.708;10.900;2022-08-19T02:17:03;17.52;;;15.73;;
21432;SDS011;18592;49.708;10.900;2022-08-19T02:19:05;17.48;;;15.73;;
21432;SDS011;18592;49.708;10.900;2022-08-19T02:21:07;17.73;;;15.88;;
21432;SDS011;18592;49.708;10.900;2022-08-19T02:23:09;17.42;;;15.70;;
21432;SDS011;18592;49.708;10.900;2022-08-19T02:25:16;16.67;;;15.07;;
21432;SDS011;18592;49.708;10.900;2022-08-19T02:27:18;17.20;;;15.45;;
21432;SDS011;18592;49.708;10.900;2022-08-19T02:29:19;17.27;;;15.52;;
21432;SDS011;18592;49.708;10.900;2022-08-19T02:31:22;18.00;;;16.20;;
21432;SDS011;18592;49.708;10.900;2022-08-19T02:33:26;17.27;;;15.57;;
21432;SDS011;18592;49.708;10.900;2022-08-19T02:35:28;17.52;;;15.73;;
21432;SDS011;18592;49.708;10.900;2022-08-19T02:37:29;17.25;;;15.52;;
21432;SDS011;18592;49.708;10.900;2022-08-19T02:39:50;17.90;;;16.10;;
21432;SDS011;18592;49.708;10.900;2022-08-19T02:41:51;17.15;;;15.25;;
21432;SDS011;18592;49.708;10.900;2022-08-19T02:43:54;17.83;;;16.02;;
21432;SDS011;18592;49.708;10.900;2022-08-19T02:46:19;17.00;;;15.30;;
21432;SDS011;18592;49.708;10.900;2022-08-19T02:48:24;16.50;;;14.90;;
21432;SDS011;18592;49.708;10.900;2022-08-19T02:50:27;17.52;;;15.73;;
21432;SDS011;18592;49.708;10.900;2022-08-19T02:52:28;17.10;;;15.40;;
21432;SDS011;18592;49.708;10.900;2022-08-19T02:54:30;16.98;;;15.32;;
21432;SDS011;18592;49.708;10.900;2022-08-19T02:56:34;17.88;;;16.08;;
21432;SDS011;18592;49.708;10.900;2022-08-19T02:58:37;17.55;;;15.85;;
21432;SDS011;18592;49.708;10.900;2022-08-19T03:00:43;18.05;;;16.27;;
21432;SDS011;18592;49.708;10.900;2022-08-19T03:02:50;18.52;;;16.73;;
21432;SDS011;18592;49.708;10.900;2022-08-19T03:04:52;18.88;;;16.98;;
21432;SDS011;18592;49.708;10.900;2022-08-19T03:06:53;17.80;;;15.75;;
21432;SDS011;18592;49.708;10.900;2022-08-19T03:08:59;17.50;;;15.65;;
21432;SDS011;18592;49.708;10.900;2022-08-19T03:11:01;17.27;;;15.57;;
21432;SDS011;18592;49.708;10.900;2022-08-19T03:13:03;17.38;;;15.60;;
21432;SDS011;18592;49.708;10.900;2022-08-19T03:15:05;17.00;;;15.23;;
21432;SDS011;18592;49.708;10.900;2022-08-19T03:17:08;18.33;;;16.55;;
21432;SDS011;18592;49.708;10.900;2022-08-19T03:19:10;18.30;;;16.48;;
21432;SDS011;18592;49.708;10.900;2022-08-19T03:21:20;18.05;;;16.25;;
21432;SDS011;18592;49.708;10.900;2022-08-19T03:23:25;17.45;;;15.75;;
21432;SDS011;18592;49.708;10.900;2022-08-19T03:25:26;16.83;;;15.18;;
21432;SDS011;18592;49.708;10.900;2022-08-19T03:27:28;16.65;;;14.95;;
21432;SDS011;18592;49.708;10.900;2022-08-19T03:29:36;18.42;;;16.50;;
21432;SDS011;18592;49.708;10.900;2022-08-19T03:31:44;17.15;;;15.43;;
21432;SDS011;18592;49.708;10.900;2022-08-19T03:33:53;16.83;;;15.13;;
21432;SDS011;18592;49.708;10.900;2022-08-19T03:36:03;17.83;;;15.93;;
21432;SDS011;18592;49.708;10.900;2022-08-19T03:38:12;16.85;;;15.15;;
21432;SDS011;18592;49.708;10.900;2022-08-19T03:40:14;18.48;;;16.58;;
21432;SDS011;18592;49.708;10.900;2022-08-19T03:42:16;17.38;;;15.57;;
21432;SDS011;18592;49.708;10.900;2022-08-19T03:44:38;17.88;;;16.05;;
21432;SDS011;18592;49.708;10.900;2022-08-19T03:46:40;19.63;;;17.63;;
21432;SDS011;18592;49.708;10.900;2022-08-19T03:48:44;17.88;;;16.08;;
21432;SDS011;18592;49.708;10.900;2022-08-19T03:50:46;18.52;;;16.17;;
21432;SDS011;18592;49.708;10.900;2022-08-19T03:52:48;17.52;;;15.82;;
21432;SDS011;18592;49.708;10.900;2022-08-19T03:54:52;18.60;;;16.40;;
21432;SDS011;18592;49.708;10.900;2022-08-19T03:56:54;17.70;;;15.80;;
21432;SDS011;18592;49.708;10.900;2022-08-19T03:58:57;17.35;;;15.50;;
21432;SDS011;18592;49.708;10.900;2022-08-19T04:01:00;18.98;;;16.30;;
21432;SDS011;18592;49.708;10.900;2022-08-19T04:03:02;18.40;;;16.50;;
21432;SDS011;18592;49.708;10.900;2022-08-19T04:05:04;18.48;;;16.50;;
21432;SDS011;18592;49.708;10.900;2022-08-19T04:07:07;18.15;;;16.35;;
21432;SDS011;18592;49.708;10.900;2022-08-19T04:09:10;19.13;;;16.05;;
21432;SDS011;18592;49.708;10.900;2022-08-19T04:11:19;18.10;;;16.25;;
21432;SDS011;18592;49.708;10.900;2022-08-19T04:13:44;17.63;;;15.88;;
21432;SDS011;18592;49.708;10.900;2022-08-19T04:15:46;18.02;;;16.15;;
21432;SDS011;18592;49.708;10.900;2022-08-19T04:17:47;17.67;;;15.88;;
21432;SDS011;18592;49.708;10.900;2022-08-19T04:19:49;17.05;;;15.35;;
21432;SDS011;18592;49.708;10.900;2022-08-19T04:21:52;19.27;;;17.15;;
21432;SDS011;18592;49.708;10.900;2022-08-19T04:23:55;18.77;;;16.80;;
21432;SDS011;18592;49.708;10.900;2022-08-19T04:25:58;18.42;;;16.52;;
21432;SDS011;18592;49.708;10.900;2022-08-19T04:27:59;20.25;;;16.20;;
21432;SDS011;18592;49.708;10.900;2022-08-19T04:30:02;18.30;;;16.25;;
21432;SDS011;18592;49.708;10.900;2022-08-19T04:32:05;18.30;;;16.40;;
21432;SDS011;18592;49.708;10.900;2022-08-19T04:34:10;17.95;;;16.13;;
21432;SDS011;18592;49.708;10.900;2022-08-19T04:36:17;18.95;;;16.92;;
21432;SDS011;18592;49.708;10.900;2022-08-19T04:38:23;18.17;;;16.25;;
21432;SDS011;18592;49.708;10.900;2022-08-19T04:40:25;17.65;;;15.60;;
21432;SDS011;18592;49.708;10.900;2022-08-19T04:42:45;19.55;;;15.98;;
21432;SDS011;18592;49.708;10.900;2022-08-19T04:44:47;17.15;;;15.35;;
21432;SDS011;18592;49.708;10.900;2022-08-19T04:46:49;19.63;;;17.13;;
21432;SDS011;18592;49.708;10.900;2022-08-19T04:48:52;17.98;;;16.08;;
21432;SDS011;18592;49.708;10.900;2022-08-19T04:50:55;17.50;;;15.68;;
21432;SDS011;18592;49.708;10.900;2022-08-19T04:53:01;18.73;;;16.75;;
21432;SDS011;18592;49.708;10.900;2022-08-19T04:55:03;18.58;;;16.67;;
21432;SDS011;18592;49.708;10.900;2022-08-19T04:57:07;20.63;;;18.42;;
21432;SDS011;18592;49.708;10.900;2022-08-19T04:59:11;19.55;;;17.17;;
21432;SDS011;18592;49.708;10.900;2022-08-19T05:01:15;19.73;;;17.60;;
21432;SDS011;18592;49.708;10.900;2022-08-19T05:03:21;18.52;;;16.52;;
21432;SDS011;18592;49.708;10.900;2022-08-19T05:05:22;19.60;;;17.38;;
21432;SDS011;18592;49.708;10.900;2022-08-19T05:07:24;18.70;;;16.73;;
21432;SDS011;18592;49.708;10.900;2022-08-19T05:09:26;17.98;;;16.17;;
21432;SDS011;18592;49.708;10.900;2022-08-19T05:11:49;18.60;;;16.67;;
21432;SDS011;18592;49.708;10.900;2022-08-19T05:13:54;19.15;;;17.15;;
21432;SDS011;18592;49.708;10.900;2022-08-19T05:15:57;19.48;;;17.45;;
21432;SDS011;18592;49.708;10.900;2022-08-19T05:18:00;18.88;;;16.95;;
21432;SDS011;18592;49.708;10.900;2022-08-19T05:20:21;19.77;;;17.52;;
21432;SDS011;18592;49.708;10.900;2022-08-19T05:22:44;20.27;;;18.08;;
21432;SDS011;18592;49.708;10.900;2022-08-19T05:24:47;19.40;;;17.25;;
21432;SDS011;18592;49.708;10.900;2022-08-19T05:27:10;21.70;;;17.92;;
21432;SDS011;18592;49.708;10.900;2022-08-19T05:29:12;19.13;;;17.05;;
21432;SDS011;18592;49.708;10.900;2022-08-19T05:31:16;19.08;;;16.45;;
21432;SDS011;18592;49.708;10.900;2022-08-19T05:33:17;18.48;;;16.55;;
21432;SDS011;18592;49.708;10.900;2022-08-19T05:35:19;19.42;;;17.42;;
21432;SDS011;18592;49.708;10.900;2022-08-19T05:37:22;19.02;;;17.02;;
21432;SDS011;18592;49.708;10.900;2022-08-19T05:39:25;19.08;;;17.10;;
21432;SDS011;18592;49.708;10.900;2022-08-19T05:41:29;19.15;;;16.52;;
21432;SDS011;18592;49.708;10.900;2022-08-19T05:43:31;18.38;;;16.45;;
21432;SDS011;18592;49.708;10.900;2022-08-19T05:45:37;18.10;;;16.20;;
21432;SDS011;18592;49.708;10.900;2022-08-19T05:47:40;18.05;;;16.15;;
21432;SDS011;18592;49.708;10.900;2022-08-19T05:49:42;20.13;;;18.02;;
21432;SDS011;18592;49.708;10.900;2022-08-19T05:51:44;17.80;;;15.90;;
21432;SDS011;18592;49.708;10.900;2022-08-19T05:53:46;19.75;;;17.38;;
21432;SDS011;18592;49.708;10.900;2022-08-19T05:55:47;18.98;;;16.95;;
21432;SDS011;18592;49.708;10.900;2022-08-19T05:57:49;17.90;;;16.10;;
21432;SDS011;18592;49.708;10.900;2022-08-19T05:59:51;18.45;;;16.50;;
21432;SDS011;18592;49.708;10.900;2022-08-19T06:01:59;19.58;;;17.42;;
21432;SDS011;18592;49.708;10.900;2022-08-19T06:04:02;18.30;;;16.40;;
21432;SDS011;18592;49.708;10.900;2022-08-19T06:06:05;18.73;;;16.70;;
21432;SDS011;18592;49.708;10.900;2022-08-19T06:08:10;17.23;;;15.43;;
21432;SDS011;18592;49.708;10.900;2022-08-19T06:10:12;19.23;;;16.70;;
21432;SDS011;18592;49.708;10.900;2022-08-19T06:12:13;22.42;;;17.83;;
21432;SDS011;18592;49.708;10.900;2022-08-19T06:14:16;17.88;;;15.85;;
21432;SDS011;18592;49.708;10.900;2022-08-19T06:16:28;19.85;;;17.40;;
21432;SDS011;18592;49.708;10.900;2022-08-19T06:18:32;19.63;;;17.23;;
21432;SDS011;18592;49.708;10.900;2022-08-19T06:20:34;19.55;;;17.55;;
21432;SDS011;18592;49.708;10.900;2022-08-19T06:22:55;19.17;;;17.15;;
21432;SDS011;18592;49.708;10.900;2022-08-19T06:24:57;21.63;;;18.20;;
21432;SDS011;18592;49.708;10.900;2022-08-19T06:26:59;20.27;;;17.35;;
21432;SDS011;18592;49.708;10.900;2022-08-19T06:29:02;21.77;;;19.35;;
21432;SDS011;18592;49.708;10.900;2022-08-19T06:31:07;20.83;;;18.63;;
21432;SDS011;18592;49.708;10.900;2022-08-19T06:33:08;19.88;;;17.77;;
21432;SDS011;18592;49.708;10.900;2022-08-19T06:35:10;21.85;;;19.35;;
21432;SDS011;18592;49.708;10.900;2022-08-19T06:37:13;20.35;;;18.17;;
21432;SDS011;18592;49.708;10.900;2022-08-19T06:39:22;20.70;;;18.52;;
21432;SDS011;18592;49.708;10.900;2022-08-19T06:41:25;22.27;;;18.80;;
21432;SDS011;18592;49.708;10.900;2022-08-19T06:43:28;19.83;;;17.63;;
21432;SDS011;18592;49.708;10.900;2022-08-19T06:45:29;20.00;;;17.48;;
21432;SDS011;18592;49.708;10.900;2022-08-19T06:47:36;20.13;;;17.95;;
21432;SDS011;18592;49.708;10.900;2022-08-19T06:49:38;25.52;;;20.63;;
21432;SDS011;18592;49.708;10.900;2022-08-19T06:51:44;25.77;;;19.63;;
21432;SDS011;18592;49.708;10.900;2022-08-19T06:53:50;24.10;;;19.27;;
21432;SDS011;18592;49.708;10.900;2022-08-19T06:55:53;23.55;;;18.92;;
21432;SDS011;18592;49.708;10.900;2022-08-19T06:58:02;21.13;;;17.85;;
21432;SDS011;18592;49.708;10.900;2022-08-19T07:00:05;20.15;;;17.17;;
21432;SDS011;18592;49.708;10.900;2022-08-19T07:02:13;18.35;;;16.45;;
21432;SDS011;18592;49.708;10.900;2022-08-19T07:04:16;18.98;;;16.90;;
21432;SDS011;18592;49.708;10.900;2022-08-19T07:06:21;18.95;;;16.65;;
21432;SDS011;18592;49.708;10.900;2022-08-19T07:08:43;19.10;;;16.50;;
21432;SDS011;18592;49.708;10.900;2022-08-19T07:10:47;18.15;;;16.25;;
21432;SDS011;18592;49.708;10.900;2022-08-19T07:12:50;18.55;;;16.10;;
21432;SDS011;18592;49.708;10.900;2022-08-19T07:14:52;17.67;;;15.80;;
21432;SDS011;18592;49.708;10.900;2022-08-19T07:16:55;18.13;;;16.17;;
21432;SDS011;18592;49.708;10.900;2022-08-19T07:18:58;18.00;;;16.10;;
21432;SDS011;18592;49.708;10.900;2022-08-19T07:21:13;18.55;;;16.55;;
21432;SDS011;18592;49.708;10.900;2022-08-19T07:23:17;17.08;;;15.27;;
21432;SDS011;18592;49.708;10.900;2022-08-19T07:25:19;18.30;;;15.68;;
21432;SDS011;18592;49.708;10.900;2022-08-19T07:27:32;18.70;;;16.77;;
21432;SDS011;18592;49.708;10.900;2022-08-19T07:29:35;17.23;;;15.43;;
21432;SDS011;18592;49.708;10.900;2022-08-19T07:31:38;18.45;;;16.52;;
21432;SDS011;18592;49.708;10.900;2022-08-19T07:33:40;18.33;;;16.17;;
21432;SDS011;18592;49.708;10.900;2022-08-19T07:35:44;18.30;;;16.40;;
21432;SDS011;18592;49.708;10.900;2022-08-19T07:37:46;18.85;;;16.85;;
21432;SDS011;18592;49.708;10.900;2022-08-19T07:39:47;15.82;;;14.23;;
21432;SDS011;18592;49.708;10.900;2022-08-19T07:41:49;16.05;;;14.35;;
21432;SDS011;18592;49.708;10.900;2022-08-19T07:43:51;17.83;;;15.73;;
21432;SDS011;18592;49.708;10.900;2022-08-19T07:45:54;16.15;;;14.50;;
21432;SDS011;18592;49.708;10.900;2022-08-19T07:47:58;18.00;;;15.95;;
21432;SDS011;18592;49.708;10.900;2022-08-19T07:50:00;18.27;;;16.20;;
21432;SDS011;18592;49.708;10.900;2022-08-19T07:52:08;16.88;;;15.07;;
21432;SDS011;18592;49.708;10.900;2022-08-19T07:54:11;16.48;;;14.77;;
21432;SDS011;18592;49.708;10.900;2022-08-19T07:56:13;16.77;;;15.07;;
21432;SDS011;18592;49.708;10.900;2022-08-19T07:58:17;17.92;;;15.68;;
21432;SDS011;18592;49.708;10.900;2022-08-19T08:00:20;16.60;;;14.90;;
21432;SDS011;18592;49.708;10.900;2022-08-19T08:02:25;17.42;;;14.90;;
21432;SDS011;18592;49.708;10.900;2022-08-19T08:04:26;17.23;;;15.05;;
21432;SDS011;18592;49.708;10.900;2022-08-19T08:06:48;17.23;;;14.93;;
21432;SDS011;18592;49.708;10.900;2022-08-19T08:09:08;17.23;;;15.20;;
21432;SDS011;18592;49.708;10.900;2022-08-19T08:11:18;16.67;;;14.98;;
21432;SDS011;18592;49.708;10.900;2022-08-19T08:13:21;16.15;;;14.40;;
21432;SDS011;18592;49.708;10.900;2022-08-19T08:15:22;18.90;;;16.42;;
21432;SDS011;18592;49.708;10.900;2022-08-19T08:17:26;16.98;;;14.98;;
21432;SDS011;18592;49.708;10.900;2022-08-19T08:19:48;16.55;;;14.82;;
21432;SDS011;18592;49.708;10.900;2022-08-19T08:21:55;15.65;;;14.05;;
21432;SDS011;18592;49.708;10.900;2022-08-19T08:23:59;16.70;;;14.85;;
21432;SDS011;18592;49.708;10.900;2022-08-19T08:26:05;16.30;;;14.30;;
21432;SDS011;18592;49.708;10.900;2022-08-19T08:28:07;16.42;;;14.77;;
21432;SDS011;18592;49.708;10.900;2022-08-19T08:30:21;18.25;;;14.65;;
21432;SDS011;18592;49.708;10.900;2022-08-19T08:32:24;16.08;;;14.45;;
21432;SDS011;18592;49.708;10.900;2022-08-19T08:34:26;15.60;;;13.95;;
21432;SDS011;18592;49.708;10.900;2022-08-19T08:36:28;15.63;;;14.13;;
21432;SDS011;18592;49.708;10.900;2022-08-19T08:38:30;14.73;;;12.93;;
21432;SDS011;18592;49.708;10.900;2022-08-19T08:40:53;14.48;;;13.00;;
21432;SDS011;18592;49.708;10.900;2022-08-19T08:43:24;14.43;;;12.93;;
21432;SDS011;18592;49.708;10.900;2022-08-19T08:45:33;16.27;;;13.27;;
21432;SDS011;18592;49.708;10.900;2022-08-19T08:47:44;14.43;;;12.93;;
21432;SDS011;18592;49.708;10.900;2022-08-19T08:52:05;14.43;;;13.02;;
21432;SDS011;18592;49.708;10.900;2022-08-19T08:54:35;14.32;;;12.93;;
21432;SDS011;18592;49.708;10.900;2022-08-19T08:56:49;13.32;;;11.88;;
21432;SDS011;18592;49.708;10.900;2022-08-19T08:58:58;13.57;;;12.27;;
21432;SDS011;18592;49.708;10.900;2022-08-19T09:01:09;13.77;;;12.32;;
21432;SDS011;18592;49.708;10.900;2022-08-19T09:05:26;14.18;;;12.38;;
21432;SDS011;18592;49.708;10.900;2022-08-19T09:10:10;13.38;;;12.07;;
21432;SDS011;18592;49.708;10.900;2022-08-19T09:15:10;13.43;;;11.77;;
21432;SDS011;18592;49.708;10.900;2022-08-19T09:17:15;12.00;;;10.82;;
21432;SDS011;18592;49.708;10.900;2022-08-19T09:19:16;12.32;;;11.23;;
21432;SDS011;18592;49.708;10.900;2022-08-19T09:21:23;12.30;;;10.98;;
21432;SDS011;18592;49.708;10.900;2022-08-19T09:23:34;12.65;;;11.40;;
21432;SDS011;18592;49.708;10.900;2022-08-19T09:25:36;11.55;;;10.45;;
21432;SDS011;18592;49.708;10.900;2022-08-19T09:27:39;12.18;;;10.98;;
21432;SDS011;18592;49.708;10.900;2022-08-19T09:29:44;12.55;;;11.23;;
21432;SDS011;18592;49.708;10.900;2022-08-19T09:31:47;13.30;;;11.98;;
21432;SDS011;18592;49.708;10.900;2022-08-19T09:33:49;12.55;;;11.32;;
21432;SDS011;18592;49.708;10.900;2022-08-19T09:36:01;12.77;;;11.57;;
21432;SDS011;18592;49.708;10.900;2022-08-19T09:38:09;12.45;;;11.25;;
21432;SDS011;18592;49.708;10.900;2022-08-19T09:40:11;12.65;;;11.45;;
21432;SDS011;18592;49.708;10.900;2022-08-19T09:42:13;11.48;;;10.38;;
21432;SDS011;18592;49.708;10.900;2022-08-19T09:44:30;13.77;;;12.10;;
21432;SDS011;18592;49.708;10.900;2022-08-19T09:46:31;11.80;;;10.60;;
21432;SDS011;18592;49.708;10.900;2022-08-19T09:48:33;11.38;;;10.38;;
21432;SDS011;18592;49.708;10.900;2022-08-19T09:50:35;11.55;;;10.50;;
21432;SDS011;18592;49.708;10.900;2022-08-19T09:52:52;11.70;;;10.52;;
21432;SDS011;18592;49.708;10.900;2022-08-19T09:54:57;11.27;;;10.05;;
21432;SDS011;18592;49.708;10.900;2022-08-19T09:56:59;11.77;;;10.65;;
21432;SDS011;18592;49.708;10.900;2022-08-19T09:59:07;11.48;;;10.38;;
21432;SDS011;18592;49.708;10.900;2022-08-19T10:01:15;11.25;;;10.15;;
21432;SDS011;18592;49.708;10.900;2022-08-19T10:03:22;12.35;;;11.15;;
21432;SDS011;18592;49.708;10.900;2022-08-19T10:05:30;10.85;;;9.85;;
21432;SDS011;18592;49.708;10.900;2022-08-19T10:07:50;10.73;;;9.73;;
21432;SDS011;18592;49.708;10.900;2022-08-19T10:09:52;10.77;;;9.68;;
21432;SDS011;18592;49.708;10.900;2022-08-19T10:11:54;10.65;;;9.65;;
21432;SDS011;18592;49.708;10.900;2022-08-19T10:13:55;11.60;;;10.52;;
21432;SDS011;18592;49.708;10.900;2022-08-19T10:16:05;10.82;;;9.82;;
21432;SDS011;18592;49.708;10.900;2022-08-19T10:18:10;9.63;;;8.63;;
21432;SDS011;18592;49.708;10.900;2022-08-19T10:20:12;10.85;;;9.85;;
21432;SDS011;18592;49.708;10.900;2022-08-19T10:22:14;10.93;;;9.93;;
21432;SDS011;18592;49.708;10.900;2022-08-19T10:24:16;10.38;;;9.48;;
21432;SDS011;18592;49.708;10.900;2022-08-19T10:26:20;10.40;;;9.50;;
21432;SDS011;18592;49.708;10.900;2022-08-19T10:28:26;9.30;;;8.45;;
21432;SDS011;18592;49.708;10.900;2022-08-19T10:30:30;9.77;;;8.98;;
21432;SDS011;18592;49.708;10.900;2022-08-19T10:32:32;9.63;;;8.75;;
21432;SDS011;18592;49.708;10.900;2022-08-19T10:34:35;9.98;;;9.07;;
21432;SDS011;18592;49.708;10.900;2022-08-19T10:36:48;8.90;;;8.00;;
21432;SDS011;18592;49.708;10.900;2022-08-19T10:39:06;10.57;;;9.10;;
21432;SDS011;18592;49.708;10.900;2022-08-19T10:41:11;9.38;;;8.57;;
21432;SDS011;18592;49.708;10.900;2022-08-19T10:43:14;10.00;;;9.10;;
21432;SDS011;18592;49.708;10.900;2022-08-19T10:45:17;8.90;;;8.10;;
21432;SDS011;18592;49.708;10.900;2022-08-19T10:47:20;9.55;;;8.68;;
21432;SDS011;18592;49.708;10.900;2022-08-19T10:49:26;9.02;;;8.13;;
21432;SDS011;18592;49.708;10.900;2022-08-19T10:51:28;9.63;;;8.73;;
21432;SDS011;18592;49.708;10.900;2022-08-19T10:53:49;9.75;;;8.95;;
21432;SDS011;18592;49.708;10.900;2022-08-19T10:55:52;11.10;;;10.00;;
21432;SDS011;18592;49.708;10.900;2022-08-19T10:58:12;10.20;;;9.30;;
21432;SDS011;18592;49.708;10.900;2022-08-19T11:00:15;9.63;;;8.73;;
21432;SDS011;18592;49.708;10.900;2022-08-19T11:02:17;9.45;;;8.65;;
21432;SDS011;18592;49.708;10.900;2022-08-19T11:04:19;9.57;;;8.75;;
21432;SDS011;18592;49.708;10.900;2022-08-19T11:06:30;10.25;;;9.35;;
21432;SDS011;18592;49.708;10.900;2022-08-19T11:08:33;10.63;;;9.52;;
21432;SDS011;18592;49.708;10.900;2022-08-19T11:10:41;10.43;;;9.52;;
21432;SDS011;18592;49.708;10.900;2022-08-19T11:12:50;9.52;;;8.63;;
21432;SDS011;18592;49.708;10.900;2022-08-19T11:14:55;9.80;;;8.80;;
21432;SDS011;18592;49.708;10.900;2022-08-19T11:16:57;9.85;;;9.05;;
21432;SDS011;18592;49.708;10.900;2022-08-19T11:18:58;11.00;;;9.98;;
21432;SDS011;18592;49.708;10.900;2022-08-19T11:21:13;10.80;;;9.80;;
21432;SDS011;18592;49.708;10.900;2022-08-19T11:23:21;10.32;;;9.43;;
21432;SDS011;18592;49.708;10.900;2022-08-19T11:25:22;10.88;;;9.88;;
21432;SDS011;18592;49.708;10.900;2022-08-19T11:27:24;10.93;;;9.93;;
21432;SDS011;18592;49.708;10.900;2022-08-19T11:29:26;12.55;;;10.38;;
21432;SDS011;18592;49.708;10.900;2022-08-19T11:31:30;11.38;;;10.38;;
21432;SDS011;18592;49.708;10.900;2022-08-19T11:33:33;11.23;;;10.13;;
21432;SDS011;18592;49.708;10.900;2022-08-19T11:35:38;11.02;;;9.93;;
21432;SDS011;18592;49.708;10.900;2022-08-19T11:37:41;11.55;;;10.45;;
21432;SDS011;18592;49.708;10.900;2022-08-19T11:39:42;11.13;;;10.02;;
21432;SDS011;18592;49.708;10.900;2022-08-19T11:41:53;12.45;;;11.32;;
21432;SDS011;18592;49.708;10.900;2022-08-19T11:43:55;11.65;;;10.52;;
21432;SDS011;18592;49.708;10.900;2022-08-19T11:45:57;11.52;;;10.43;;
21432;SDS011;18592;49.708;10.900;2022-08-19T11:47:59;11.95;;;10.68;;
21432;SDS011;18592;49.708;10.900;2022-08-19T11:50:00;11.27;;;10.27;;
21432;SDS011;18592;49.708;10.900;2022-08-19T11:52:02;11.75;;;10.57;;
21432;SDS011;18592;49.708;10.900;2022-08-19T11:54:04;12.18;;;11.07;;
21432;SDS011;18592;49.708;10.900;2022-08-19T11:56:07;10.73;;;9.68;;
21432;SDS011;18592;49.708;10.900;2022-08-19T11:58:09;11.60;;;10.40;;
21432;SDS011;18592;49.708;10.900;2022-08-19T12:00:19;11.32;;;10.30;;
21432;SDS011;18592;49.708;10.900;2022-08-19T12:02:21;12.50;;;11.30;;
21432;SDS011;18592;49.708;10.900;2022-08-19T12:04:23;12.05;;;10.85;;
21432;SDS011;18592;49.708;10.900;2022-08-19T12:06:26;11.48;;;10.40;;
21432;SDS011;18592;49.708;10.900;2022-08-19T12:08:29;12.00;;;10.90;;
21432;SDS011;18592;49.708;10.900;2022-08-19T12:10:32;11.90;;;10.75;;
21432;SDS011;18592;49.708;10.900;2022-08-19T12:12:34;11.50;;;10.48;;